Time;durP1;ratioP1;P1;durP2;ratioP2;P2;SDS_P1;SDS_P2;PMS_P1;PMS_P2;Temp;Humidity;BMP_temperature;BMP_pressure;BME280_temperature;BME280_humidity;BME280_pressure;Samples;Min_cycle;Max_cycle;Signal;HPM_P1;HPM_P2
2024/01/17 00:00:16;;;;;;;11.50;5.25;;;;;;;-5.10;84.74;98232.91;335885;28;17601;-79
2024/01/17 00:00:28;;;;;;;11.82;5.50;;;;;;;-5.11;84.75;98230.34;336601;28;17816;-78
2024/01/17 00:00:40;;;;;;;14.27;5.68;;;;;;;-5.12;84.81;98226.97;339034;28;5390;-79
2024/01/17 00:00:52;;;;;;;13.45;5.50;;;;;;;-5.23;84.28;98234.50;336852;28;18322;-79
2024/01/17 00:01:04;;;;;;;11.23;5.20;;;;;;;-5.23;85.05;98229.44;339402;28;5299;-78
2024/01/17 00:01:17;;;;;;;11.23;5.18;;;;;;;-5.26;84.76;98229.41;336702;28;16394;-79
2024/01/17 00:01:29;;;;;;;10.95;5.55;;;;;;;-5.23;85.23;98226.91;334752;28;5947;-79
2024/01/17 00:01:41;;;;;;;10.95;5.55;;;;;;;-5.21;85.03;98226.94;339111;28;4529;-79
2024/01/17 00:01:54;;;;;;;9.00;5.03;;;;;;;-5.19;85.05;98221.84;335993;28;18080;-77
2024/01/17 00:02:06;;;;;;;10.05;5.43;;;;;;;-5.17;85.06;98222.72;337828;28;4536;-78
2024/01/17 00:02:18;;;;;;;10.35;5.45;;;;;;;-5.18;84.70;98221.88;335031;28;18100;-79
2024/01/17 00:02:30;;;;;;;10.38;5.18;;;;;;;-5.17;85.13;98216.00;337733;28;4753;-78
2024/01/17 00:02:42;;;;;;;12.23;5.20;;;;;;;-5.19;84.37;98216.78;337604;28;18433;-79
2024/01/17 00:02:54;;;;;;;15.38;5.68;;;;;;;-5.20;85.06;98217.63;335550;28;19000;-79
2024/01/17 00:03:06;;;;;;;14.98;6.07;;;;;;;-5.15;84.60;98221.03;333900;28;4657;-77
2024/01/17 00:03:19;;;;;;;10.43;5.68;;;;;;;-5.17;84.41;98217.66;335160;28;17975;-79
2024/01/17 00:03:31;;;;;;;9.85;5.53;;;;;;;-5.13;84.61;98220.25;338135;28;4503;-79
2024/01/17 00:03:43;;;;;;;10.88;5.82;;;;;;;-5.13;84.97;98209.22;335711;28;12165;-79
2024/01/17 00:03:54;;;;;;;12.20;6.20;;;;;;;-5.14;84.63;98212.63;338132;28;4538;-78
2024/01/17 00:04:08;;;;;;;11.30;5.80;;;;;;;-5.15;84.74;98215.97;337704;28;4542;-78
2024/01/17 00:04:20;;;;;;;9.77;5.32;;;;;;;-5.14;84.49;98212.63;334951;28;17884;-79
2024/01/17 00:04:32;;;;;;;9.48;5.05;;;;;;;-5.16;84.47;98212.59;337700;28;4589;-79
2024/01/17 00:04:46;;;;;;;9.60;4.97;;;;;;;-5.08;84.87;98212.66;334050;28;17982;-78
2024/01/17 00:04:58;;;;;;;11.57;5.57;;;;;;;-5.08;84.57;98213.50;335176;28;12417;-78
2024/01/17 00:05:10;;;;;;;13.60;5.70;;;;;;;-5.05;84.66;98212.66;337606;28;4527;-79
2024/01/17 00:05:22;;;;;;;13.98;5.55;;;;;;;-5.05;84.32;98215.19;338054;28;5334;-79
2024/01/17 00:05:34;;;;;;;13.13;5.82;;;;;;;-5.05;84.30;98212.66;335430;28;18999;-79
2024/01/17 00:05:47;;;;;;;12.88;6.10;;;;;;;-5.11;84.07;98215.16;337535;28;5776;-79
2024/01/17 00:05:59;;;;;;;16.48;6.80;;;;;;;-5.16;84.29;98214.28;335080;28;18512;-78
2024/01/17 00:06:11;;;;;;;14.77;5.95;;;;;;;-5.14;84.39;98205.84;337405;28;4590;-79
2024/01/17 00:06:23;;;;;;;11.80;5.57;;;;;;;-5.17;84.39;98205.84;335163;28;18613;-79
2024/01/17 00:06:35;;;;;;;9.32;5.38;;;;;;;-5.17;84.41;98210.03;336922;28;5335;-79
2024/01/17 00:06:47;;;;;;;10.93;5.32;;;;;;;-5.14;84.14;98215.16;334342;28;10658;-79
2024/01/17 00:06:59;;;;;;;10.90;5.07;;;;;;;-5.15;84.36;98210.91;336198;28;17068;-79
2024/01/17 00:07:11;;;;;;;9.32;4.88;;;;;;;-5.14;84.32;98210.94;336675;28;5285;-79
2024/01/17 00:07:24;;;;;;;10.23;4.82;;;;;;;-5.09;84.12;98208.41;332194;28;16435;-78
2024/01/17 00:07:37;;;;;;;11.43;5.32;;;;;;;-5.18;84.12;98209.22;334869;29;5341;-79
2024/01/17 00:07:49;;;;;;;12.95;5.88;;;;;;;-5.15;84.27;98205.84;332618;28;18478;-79
2024/01/17 00:08:01;;;;;;;14.50;5.60;;;;;;;-5.15;83.81;98205.84;335383;29;5356;-79
2024/01/17 00:08:13;;;;;;;12.90;5.10;;;;;;;-5.40;84.06;98205.66;332874;28;12106;-79
2024/01/17 00:08:25;;;;;;;11.80;5.30;;;;;;;-5.42;84.23;98207.34;336684;28;4491;-78
2024/01/17 00:08:38;;;;;;;9.13;5.50;;;;;;;-5.38;84.85;98203.16;331883;28;5278;-78
2024/01/17 00:08:50;;;;;;;8.70;4.97;;;;;;;-5.43;84.56;98205.66;334187;28;19394;-79
2024/01/17 00:09:03;;;;;;;9.77;5.13;;;;;;;-5.45;84.55;98203.13;336597;28;4530;-79
2024/01/17 00:09:16;;;;;;;11.30;5.25;;;;;;;-5.39;85.02;98202.31;332553;28;17900;-79
2024/01/17 00:09:28;;;;;;;12.85;5.60;;;;;;;-5.33;85.08;98201.50;336372;28;4596;-79
2024/01/17 00:09:40;;;;;;;12.27;5.60;;;;;;;-5.29;85.17;98199.00;334426;28;18259;-78
2024/01/17 00:09:52;;;;;;;12.25;5.68;;;;;;;-5.31;84.75;98200.69;337780;28;4717;-78
2024/01/17 00:10:04;;;;;;;13.15;5.78;;;;;;;-5.30;85.30;98202.38;335310;28;4705;-79
2024/01/17 00:10:16;;;;;;;11.73;5.40;;;;;;;-5.27;85.16;98201.53;337931;28;4649;-79
2024/01/17 00:10:28;;;;;;;11.68;5.15;;;;;;;-5.28;84.99;98199.84;335267;28;13532;-79
2024/01/17 00:10:40;;;;;;;12.00;5.03;;;;;;;-5.31;85.07;98198.16;336082;28;5406;-83
2024/01/17 00:10:53;;;;;;;16.23;6.15;;;;;;;-5.36;85.26;98197.25;336310;28;4569;-83
2024/01/17 00:11:05;;;;;;;17.02;5.97;;;;;;;-5.36;85.30;98196.41;333031;28;16709;-83
2024/01/17 00:11:17;;;;;;;12.90;4.90;;;;;;;-5.40;85.23;98195.53;335090;28;4613;-79
2024/01/17 00:11:29;;;;;;;11.75;4.85;;;;;;;-5.39;85.29;98196.38;335819;28;5466;-79
2024/01/17 00:11:44;;;;;;;11.68;5.10;;;;;;;-5.36;85.24;98196.41;333058;28;16471;-83
2024/01/17 00:11:58;;;;;;;11.02;5.13;;;;;;;-5.33;85.46;98192.22;335469;28;17636;-83
2024/01/17 00:12:10;;;;;;;10.13;5.40;;;;;;;-5.29;85.38;98196.47;336310;28;17864;-82
2024/01/17 00:12:22;;;;;;;9.82;5.50;;;;;;;-5.26;85.28;98198.19;338426;28;4485;-82
2024/01/17 00:12:34;;;;;;;10.55;5.35;;;;;;;-5.25;85.11;98193.13;337460;28;4744;-83
2024/01/17 00:12:46;;;;;;;10.23;5.28;;;;;;;-5.23;85.66;98188.09;335050;28;17889;-82
2024/01/17 00:12:58;;;;;;;10.82;5.57;;;;;;;-5.20;85.22;98192.31;336599;28;4744;-83
2024/01/17 00:13:10;;;;;;;13.15;5.72;;;;;;;-5.13;85.24;98192.38;329462;28;11284;-83
2024/01/17 00:13:22;;;;;;;14.35;5.85;;;;;;;-5.13;85.03;98197.44;336413;28;4509;-83
2024/01/17 00:13:34;;;;;;;12.60;5.78;;;;;;;-5.11;84.81;98187.28;337647;28;5269;-83
2024/01/17 00:13:46;;;;;;;10.82;5.60;;;;;;;-5.10;84.93;98189.84;335276;28;4830;-83
2024/01/17 00:13:59;;;;;;;11.57;5.45;;;;;;;-5.10;84.76;98189.00;337636;28;4596;-83
2024/01/17 00:14:11;;;;;;;11.55;5.47;;;;;;;-5.13;84.24;98194.03;335117;28;13420;-82
2024/01/17 00:14:23;;;;;;;11.13;5.38;;;;;;;-5.09;84.65;98190.69;336528;28;4763;-82
2024/01/17 00:14:35;;;;;;;11.93;5.22;;;;;;;-5.09;84.29;98190.69;336435;28;4538;-83
2024/01/17 00:14:47;;;;;;;12.13;5.50;;;;;;;-5.07;84.47;98186.47;332007;28;17788;-83
2024/01/17 00:14:59;;;;;;;13.77;5.70;;;;;;;-5.13;84.57;98183.91;336087;28;4511;-83
2024/01/17 00:15:12;;;;;;;12.38;5.38;;;;;;;-5.12;84.81;98190.69;336353;28;5425;-83
2024/01/17 00:15:24;;;;;;;9.90;5.10;;;;;;;-5.14;84.75;98190.66;333867;28;17732;-83
2024/01/17 00:15:36;;;;;;;11.20;5.10;;;;;;;-5.13;84.30;98188.97;335970;28;5428;-83
2024/01/17 00:15:48;;;;;;;12.38;5.53;;;;;;;-5.16;84.44;98184.72;333645;28;17967;-82
2024/01/17 00:16:01;;;;;;;12.48;5.68;;;;;;;-5.12;84.78;98185.59;335229;29;4644;-82
2024/01/17 00:16:21;;;;;;;10.93;5.22;;;;;;;-5.18;84.77;98186.41;332602;29;17858;-82
2024/01/17 00:16:33;;;;;;;9.63;5.10;;;;;;;-5.23;84.63;98183.84;334815;28;18596;-82
2024/01/17 00:16:45;;;;;;;9.45;5.20;;;;;;;-5.18;84.83;98190.63;337438;28;4558;-83
2024/01/17 00:16:57;;;;;;;11.93;5.72;;;;;;;-5.22;84.49;98180.47;334605;28;12510;-83
2024/01/17 00:17:09;;;;;;;11.55;5.32;;;;;;;-5.25;84.54;98184.69;336188;28;5071;-82
2024/01/17 00:17:21;;;;;;;11.68;5.53;;;;;;;-5.19;84.69;98183.84;336127;28;5202;-83
2024/01/17 00:17:33;;;;;;;10.35;5.28;;;;;;;-5.14;84.57;98187.28;333349;28;18506;-83
2024/01/17 00:17:48;;;;;;;10.15;4.85;;;;;;;-5.09;84.93;98190.69;335057;29;5111;-83
2024/01/17 00:18:00;;;;;;;11.63;5.07;;;;;;;-5.09;84.44;98190.69;331021;29;17830;-83
2024/01/17 00:18:12;;;;;;;12.05;5.63;;;;;;;-5.08;84.27;98182.25;335152;29;4547;-83
2024/01/17 00:18:24;;;;;;;10.40;5.57;;;;;;;-5.05;84.46;98179.72;332105;28;18205;-82
2024/01/17 00:18:36;;;;;;;9.40;5.28;;;;;;;-5.14;84.11;98189.81;334332;28;4537;-83
2024/01/17 00:18:48;;;;;;;10.45;5.50;;;;;;;-5.22;84.26;98190.59;330679;29;13107;-83
2024/01/17 00:19:01;;;;;;;10.02;5.50;;;;;;;-5.17;84.60;98187.25;329587;28;4628;-82
2024/01/17 00:19:13;;;;;;;10.40;5.57;;;;;;;-5.14;84.85;98185.59;332146;28;18329;-82
2024/01/17 00:19:26;;;;;;;12.25;5.80;;;;;;;-5.08;84.68;98182.25;335162;28;5653;-83
2024/01/17 00:19:38;;;;;;;13.45;6.00;;;;;;;-5.06;84.68;98190.72;333772;28;17820;-83
2024/01/17 00:19:50;;;;;;;14.43;5.97;;;;;;;-5.16;84.21;98188.97;335900;28;5320;-83
2024/01/17 00:20:02;;;;;;;13.98;5.60;;;;;;;-5.15;84.67;98190.63;336644;28;5504;-83
2024/01/17 00:20:15;;;;;;;12.23;5.05;;;;;;;-5.14;84.36;98194.88;333735;28;18409;-83
2024/01/17 00:20:27;;;;;;;13.43;5.18;;;;;;;-5.23;84.28;98188.91;335772;28;5038;-83
2024/01/17 00:20:39;;;;;;;12.93;4.95;;;;;;;-5.21;84.70;98196.53;327026;29;13084;-83
2024/01/17 00:20:51;;;;;;;12.60;5.47;;;;;;;-5.17;84.60;98192.31;334003;29;5301;-83
2024/01/17 00:21:03;;;;;;;11.70;5.32;;;;;;;-5.14;84.66;98189.81;336208;28;4580;-83
2024/01/17 00:21:15;;;;;;;11.48;5.00;;;;;;;-5.11;84.42;98195.75;328875;28;17840;-83
2024/01/17 00:21:28;;;;;;;11.98;5.05;;;;;;;-5.07;84.77;98199.13;334972;28;5600;-82
2024/01/17 00:21:40;;;;;;;12.68;5.35;;;;;;;-5.09;84.43;98203.34;333102;28;12900;-83
2024/01/17 00:21:52;;;;;;;13.60;5.25;;;;;;;-5.11;84.52;98199.94;336989;28;5331;-83
2024/01/17 00:22:04;;;;;;;12.75;5.07;;;;;;;-5.14;84.64;98202.47;334670;28;4676;-83
2024/01/17 00:22:16;;;;;;;11.15;5.10;;;;;;;-5.16;84.43;98199.09;337537;28;4513;-83
2024/01/17 00:22:28;;;;;;;10.30;5.30;;;;;;;-5.13;84.03;98209.22;334304;28;5453;-83
2024/01/17 00:22:40;;;;;;;9.13;4.95;;;;;;;-5.12;84.39;98205.88;335240;28;5306;-83
2024/01/17 00:22:54;;;;;;;9.80;4.78;;;;;;;-5.12;84.72;98210.94;336285;28;4544;-82
2024/01/17 00:23:06;;;;;;;10.80;5.00;;;;;;;-5.14;84.52;98205.03;334983;28;17914;-83
2024/01/17 00:23:18;;;;;;;10.35;5.32;;;;;;;-5.18;84.60;98209.22;336479;28;4519;-83
2024/01/17 00:23:30;;;;;;;9.93;5.45;;;;;;;-5.14;84.73;98212.63;333044;28;17000;-83
2024/01/17 00:23:42;;;;;;;9.23;5.25;;;;;;;-5.12;84.71;98205.88;334458;28;8063;-83
2024/01/17 00:23:54;;;;;;;9.23;4.85;;;;;;;-5.09;84.49;98208.41;336900;28;5353;-83
2024/01/17 00:24:06;;;;;;;10.02;4.82;;;;;;;-5.09;84.43;98214.34;333411;28;17909;-82
2024/01/17 00:24:18;;;;;;;10.02;5.10;;;;;;;-5.06;84.12;98208.44;337208;28;4536;-82
2024/01/17 00:24:30;;;;;;;11.52;5.50;;;;;;;-5.06;84.22;98205.91;334857;28;4552;-82
2024/01/17 00:24:42;;;;;;;12.85;5.80;;;;;;;-5.13;83.93;98209.22;338351;28;5086;-83
2024/01/17 00:24:54;;;;;;;13.02;5.22;;;;;;;-5.11;84.21;98210.09;339145;28;13107;-83
2024/01/17 00:25:08;;;;;;;12.77;4.82;;;;;;;-5.11;84.34;98208.44;332977;28;18935;-82
2024/01/17 00:25:21;;;;;;;11.80;5.07;;;;;;;-5.09;84.14;98205.88;332336;28;11045;-82
2024/01/17 00:25:32;;;;;;;10.50;5.00;;;;;;;-5.06;84.13;98206.75;337455;28;5336;-83
2024/01/17 00:25:45;;;;;;;11.15;4.95;;;;;;;-5.07;84.19;98206.72;337726;28;5305;-82
2024/01/17 00:25:57;;;;;;;11.27;4.90;;;;;;;-5.11;84.11;98198.28;336714;28;17473;-83
2024/01/17 00:26:09;;;;;;;13.40;5.38;;;;;;;-5.08;83.81;98205.06;338793;28;4512;-83
2024/01/17 00:26:21;;;;;;;12.15;5.30;;;;;;;-5.03;84.07;98205.91;335914;28;16502;-83
2024/01/17 00:26:33;;;;;;;11.02;5.35;;;;;;;-5.05;83.76;98200.00;338735;28;4490;-82
2024/01/17 00:26:45;;;;;;;9.52;5.13;;;;;;;-5.07;84.29;98194.06;337989;28;4597;-83
2024/01/17 00:26:57;;;;;;;8.52;5.35;;;;;;;-5.05;83.98;98202.53;336507;28;16571;-83
2024/01/17 00:27:09;;;;;;;9.35;5.13;;;;;;;-5.06;83.77;98195.78;338998;28;4616;-82
2024/01/17 00:27:24;;;;;;;11.13;5.15;;;;;;;-5.05;83.91;98194.91;335593;28;18361;-83
2024/01/17 00:27:36;;;;;;;10.30;4.85;;;;;;;-5.03;83.94;98195.78;336310;28;16114;-82
2024/01/17 00:27:49;;;;;;;8.63;4.90;;;;;;;-5.02;83.78;98194.97;337437;28;4534;-82
2024/01/17 00:28:01;;;;;;;9.05;5.05;;;;;;;-5.00;83.90;98200.88;337063;28;10149;-83
2024/01/17 00:28:14;;;;;;;10.23;5.22;;;;;;;-4.93;83.68;98196.69;335147;28;5568;-83
2024/01/17 00:28:26;;;;;;;12.27;5.70;;;;;;;-5.02;83.81;98197.50;336920;28;4533;-82
2024/01/17 00:28:38;;;;;;;13.10;5.88;;;;;;;-5.00;83.75;98195.81;333891;28;16576;-83
2024/01/17 00:28:50;;;;;;;13.00;5.55;;;;;;;-5.10;83.74;98194.91;336172;28;5569;-82
2024/01/17 00:29:02;;;;;;;11.23;5.30;;;;;;;-5.04;83.49;98194.94;332988;28;10803;-82
2024/01/17 00:29:15;;;;;;;9.68;4.75;;;;;;;-5.01;83.75;98194.09;336461;28;4566;-82
2024/01/17 00:29:27;;;;;;;10.68;4.88;;;;;;;-4.99;83.45;98200.03;328576;29;4724;-83
2024/01/17 00:29:39;;;;;;;13.63;5.38;;;;;;;-5.00;83.43;98195.81;334957;29;5082;-83
2024/01/17 00:29:57;;;;;;;13.35;5.57;;;;;;;-4.96;83.53;98189.09;333351;28;12495;-83
2024/01/17 00:30:11;;;;;;;10.57;5.07;;;;;;;-5.11;82.81;98192.34;334589;28;18581;-83
2024/01/17 00:30:25;;;;;;;12.88;5.05;;;;;;;-5.07;82.83;98191.53;335261;28;18249;-83
2024/01/17 00:30:37;;;;;;;13.48;5.10;;;;;;;-5.10;82.59;98204.19;335071;28;18758;-83
2024/01/17 00:30:49;;;;;;;11.52;5.18;;;;;;;-5.09;82.50;98190.69;337557;28;4708;-82
2024/01/17 00:31:02;;;;;;;10.07;5.07;;;;;;;-5.10;82.51;98194.06;333128;28;4749;-82
2024/01/17 00:31:14;;;;;;;8.75;4.78;;;;;;;-5.11;82.24;98194.88;333308;28;17839;-82
2024/01/17 00:31:26;;;;;;;9.57;4.90;;;;;;;-5.12;82.44;98195.75;335696;28;5092;-83
2024/01/17 00:31:38;;;;;;;11.07;4.95;;;;;;;-5.10;82.78;98189.84;333581;28;17997;-83
2024/01/17 00:31:50;;;;;;;10.02;4.72;;;;;;;-5.13;82.78;98188.97;335933;28;4569;-83
2024/01/17 00:32:02;;;;;;;9.95;4.88;;;;;;;-5.11;82.94;98187.28;334105;28;13135;-83
2024/01/17 00:32:15;;;;;;;10.60;5.25;;;;;;;-5.07;83.29;98189.00;336445;28;4521;-83
2024/01/17 00:32:28;;;;;;;10.25;5.28;;;;;;;-5.09;83.07;98190.69;329683;28;5530;-83
2024/01/17 00:32:41;;;;;;;8.45;4.57;;;;;;;-5.06;83.09;98190.72;333823;29;4653;-82
2024/01/17 00:32:53;;;;;;;8.65;4.18;;;;;;;-5.13;83.61;98194.91;331351;29;16018;-83
2024/01/17 00:33:05;;;;;;;9.57;4.10;;;;;;;-5.15;83.58;98190.63;332907;29;4693;-83
2024/01/17 00:33:17;;;;;;;10.85;4.65;;;;;;;-5.08;84.26;98188.16;332389;28;4590;-83
2024/01/17 00:33:30;;;;;;;12.88;5.20;;;;;;;-5.02;83.84;98192.41;334786;28;17686;-83
2024/01/17 00:33:42;;;;;;;12.40;5.25;;;;;;;-5.03;83.75;98186.50;335387;29;4716;-83
2024/01/17 00:33:54;;;;;;;11.68;5.28;;;;;;;-5.03;83.34;98191.59;333733;28;18634;-82
2024/01/17 00:34:06;;;;;;;11.27;5.25;;;;;;;-5.11;83.09;98188.16;332083;29;15081;-82
2024/01/17 00:34:18;;;;;;;11.15;5.13;;;;;;;-5.09;83.35;98191.53;332431;28;10776;-83
2024/01/17 00:34:31;;;;;;;10.25;4.97;;;;;;;-5.08;83.55;98192.38;338074;28;4514;-82
2024/01/17 00:34:43;;;;;;;9.32;4.88;;;;;;;-5.07;83.39;98196.59;337354;28;4529;-82
2024/01/17 00:34:55;;;;;;;10.88;5.13;;;;;;;-5.01;83.33;98194.09;333614;28;18073;-83
2024/01/17 00:35:08;;;;;;;12.10;4.90;;;;;;;-5.09;82.66;98190.69;334332;29;4951;-83
2024/01/17 00:35:20;;;;;;;10.85;4.32;;;;;;;-5.06;83.01;98189.00;332191;29;17764;-83
2024/01/17 00:35:32;;;;;;;9.52;4.35;;;;;;;-5.07;83.08;98196.59;335178;29;5035;-82
2024/01/17 00:35:44;;;;;;;7.07;4.30;;;;;;;-5.04;83.01;98194.09;332318;29;17951;-83
2024/01/17 00:35:57;;;;;;;7.80;4.85;;;;;;;-5.12;83.05;98200.81;334552;29;4829;-83
2024/01/17 00:36:10;;;;;;;9.25;4.90;;;;;;;-5.14;82.34;98193.19;332359;29;12233;-82
2024/01/17 00:36:22;;;;;;;11.85;5.07;;;;;;;-5.16;83.06;98194.03;334680;29;5213;-83
2024/01/17 00:36:34;;;;;;;11.88;4.72;;;;;;;-5.11;83.06;98202.50;334613;29;18834;-82
2024/01/17 00:36:46;;;;;;;9.70;4.93;;;;;;;-5.04;82.91;98199.16;331452;28;17730;-83
2024/01/17 00:36:58;;;;;;;10.55;4.70;;;;;;;-5.02;83.00;98192.41;334783;28;5074;-82
2024/01/17 00:37:10;;;;;;;10.75;4.63;;;;;;;-5.01;82.45;98199.16;332755;28;16366;-82
2024/01/17 00:37:22;;;;;;;11.02;4.57;;;;;;;-5.09;82.04;98195.75;334903;28;4644;-82
2024/01/17 00:37:34;;;;;;;10.90;4.70;;;;;;;-5.05;82.11;98194.91;332226;28;16176;-83
2024/01/17 00:37:46;;;;;;;9.45;4.53;;;;;;;-5.02;81.66;98197.50;334242;28;4679;-83
2024/01/17 00:37:58;;;;;;;10.55;4.78;;;;;;;-5.02;81.42;98195.78;335148;28;4540;-83
2024/01/17 00:38:10;;;;;;;11.38;5.00;;;;;;;-4.99;81.60;98197.50;333557;28;18586;-83
2024/01/17 00:38:22;;;;;;;11.75;5.05;;;;;;;-4.99;81.31;98192.44;332736;28;18258;-83
2024/01/17 00:38:34;;;;;;;9.48;4.20;;;;;;;-4.93;81.22;98187.44;334441;28;4650;-83
2024/01/17 00:38:46;;;;;;;9.10;4.28;;;;;;;-4.88;81.72;98187.44;331138;28;17937;-82
2024/01/17 00:38:58;;;;;;;8.60;4.43;;;;;;;-4.86;81.13;98188.28;334512;29;5544;-83
2024/01/17 00:39:13;;;;;;;11.23;4.82;;;;;;;-4.80;81.97;98187.47;332444;28;8982;-83
2024/01/17 00:39:25;;;;;;;12.15;4.45;;;;;;;-4.75;82.02;98185.81;333651;28;10992;-82
2024/01/17 00:39:37;;;;;;;10.43;4.15;;;;;;;-4.69;81.68;98180.75;336257;28;4583;-83
2024/01/17 00:39:50;;;;;;;11.25;4.53;;;;;;;-4.67;81.54;98187.56;331436;28;4582;-83
2024/01/17 00:40:03;;;;;;;10.38;4.53;;;;;;;-4.62;81.25;98192.63;332328;28;18054;-83
2024/01/17 00:40:15;;;;;;;8.32;4.47;;;;;;;-4.60;81.60;98188.41;336854;28;4583;-82
2024/01/17 00:40:27;;;;;;;10.18;4.68;;;;;;;-4.58;81.82;98180.81;334807;28;18006;-83
2024/01/17 00:40:39;;;;;;;9.90;5.15;;;;;;;-4.59;81.58;98191.78;337484;28;4530;-82
2024/01/17 00:40:51;;;;;;;10.15;5.30;;;;;;;-4.56;81.59;98185.06;334865;28;17699;-83
2024/01/17 00:41:06;;;;;;;10.57;5.07;;;;;;;-4.55;81.62;98181.66;337586;28;4678;-83
2024/01/17 00:41:18;;;;;;;9.90;4.57;;;;;;;-4.58;81.64;98189.28;335212;28;18015;-83
2024/01/17 00:41:30;;;;;;;9.55;4.50;;;;;;;-4.59;81.96;98187.56;335002;28;13100;-83
2024/01/17 00:41:42;;;;;;;8.05;4.30;;;;;;;-4.60;81.91;98193.50;336862;28;5205;-82
2024/01/17 00:41:54;;;;;;;10.02;4.32;;;;;;;-4.63;82.05;98188.38;337937;28;4525;-83
2024/01/17 00:42:06;;;;;;;11.23;4.65;;;;;;;-4.60;82.25;98185.88;334045;28;17787;-83
2024/01/17 00:42:19;;;;;;;9.57;4.43;;;;;;;-4.58;82.35;98186.75;338034;28;4777;-83
2024/01/17 00:42:31;;;;;;;9.75;4.28;;;;;;;-4.56;82.34;98194.34;337322;28;13209;-83
2024/01/17 00:42:43;;;;;;;9.82;4.45;;;;;;;-4.71;82.49;98190.03;330204;28;18909;-83
2024/01/17 00:42:56;;;;;;;11.40;4.93;;;;;;;-4.74;82.42;98187.50;336875;28;5407;-82
2024/01/17 00:43:08;;;;;;;10.95;4.68;;;;;;;-4.69;82.83;98184.16;332934;28;17903;-83
2024/01/17 00:43:20;;;;;;;11.43;4.45;;;;;;;-4.71;82.97;98182.44;337605;28;4544;-82
2024/01/17 00:43:32;;;;;;;10.40;4.55;;;;;;;-4.72;83.26;98180.75;333973;28;17049;-83
2024/01/17 00:43:45;;;;;;;8.60;4.57;;;;;;;-4.69;83.23;98189.25;335439;28;4539;-83
2024/01/17 00:43:57;;;;;;;9.07;4.70;;;;;;;-4.68;83.25;98187.53;333455;28;12723;-83
2024/01/17 00:44:09;;;;;;;9.10;4.72;;;;;;;-4.77;82.87;98182.41;335460;28;4614;-82
2024/01/17 00:44:21;;;;;;;8.65;4.75;;;;;;;-4.76;83.30;98191.72;335910;28;4556;-82
2024/01/17 00:44:33;;;;;;;8.68;4.38;;;;;;;-4.76;83.70;98184.13;333316;28;17807;-83
2024/01/17 00:44:45;;;;;;;8.60;4.30;;;;;;;-4.71;83.79;98182.44;334366;28;5126;-82
2024/01/17 00:44:58;;;;;;;8.40;4.43;;;;;;;-4.66;83.25;98181.63;332136;28;18213;-83
2024/01/17 00:45:13;;;;;;;9.57;4.70;;;;;;;-4.71;83.22;98179.91;332578;29;5567;-83
2024/01/17 00:45:25;;;;;;;11.45;4.63;;;;;;;-4.70;83.13;98184.16;329626;29;17707;-83
2024/01/17 00:45:37;;;;;;;9.32;4.38;;;;;;;-4.68;83.32;98182.47;330802;28;17372;-83
2024/01/17 00:45:49;;;;;;;9.02;4.15;;;;;;;-4.65;83.39;98185.00;333850;28;4613;-82
2024/01/17 00:46:01;;;;;;;9.13;4.18;;;;;;;-4.66;83.40;98178.25;334622;28;5429;-83
2024/01/17 00:46:13;;;;;;;10.68;4.80;;;;;;;-4.62;83.39;98178.25;332462;28;17631;-83
2024/01/17 00:46:25;;;;;;;10.98;5.13;;;;;;;-4.57;83.12;98183.34;334364;28;5342;-83
2024/01/17 00:46:37;;;;;;;10.25;4.95;;;;;;;-4.60;82.98;98180.81;332153;28;16644;-83
2024/01/17 00:46:49;;;;;;;10.43;4.70;;;;;;;-4.67;83.11;98184.16;334861;28;4949;-83
2024/01/17 00:47:01;;;;;;;9.63;4.50;;;;;;;-4.73;83.01;98179.06;331792;28;4563;-83
2024/01/17 00:47:13;;;;;;;8.52;4.30;;;;;;;-4.72;83.26;98180.75;333952;28;11932;-82
2024/01/17 00:47:25;;;;;;;8.48;4.38;;;;;;;-4.72;83.38;98180.75;337072;28;4696;-82
2024/01/17 00:47:37;;;;;;;10.05;4.45;;;;;;;-4.72;83.57;98180.75;336986;28;5805;-82
2024/01/17 00:47:49;;;;;;;10.00;4.20;;;;;;;-4.79;83.65;98179.88;334794;28;19050;-83
2024/01/17 00:48:01;;;;;;;8.80;4.22;;;;;;;-4.76;83.57;98177.34;336353;28;5106;-83
2024/01/17 00:48:13;;;;;;;9.48;4.38;;;;;;;-4.72;83.84;98171.47;333742;28;18003;-83
2024/01/17 00:48:26;;;;;;;11.73;4.55;;;;;;;-4.70;83.46;98181.63;332151;28;4632;-83
2024/01/17 00:48:38;;;;;;;13.43;4.55;;;;;;;-4.77;83.82;98177.34;334782;28;18074;-83
2024/01/17 00:48:50;;;;;;;12.75;4.75;;;;;;;-4.71;83.67;98184.97;336946;28;4567;-83
2024/01/17 00:49:02;;;;;;;10.52;4.50;;;;;;;-4.75;83.80;98175.66;335968;28;5318;-83
2024/01/17 00:49:14;;;;;;;11.32;4.32;;;;;;;-4.78;83.46;98180.72;335363;28;17131;-82
2024/01/17 00:49:27;;;;;;;12.32;4.47;;;;;;;-4.78;83.98;98175.66;337289;28;5402;-83
2024/01/17 00:49:39;;;;;;;10.27;4.40;;;;;;;-4.76;83.77;98173.97;334462;28;17041;-83
2024/01/17 00:49:51;;;;;;;9.98;4.57;;;;;;;-4.72;83.90;98175.69;336176;28;4551;-83
2024/01/17 00:50:04;;;;;;;9.40;4.65;;;;;;;-4.73;83.73;98179.06;331111;28;5552;-82
2024/01/17 00:50:18;;;;;;;12.07;4.72;;;;;;;-4.80;83.91;98174.81;333832;28;5612;-83
2024/01/17 00:50:30;;;;;;;12.65;4.88;;;;;;;-4.79;83.64;98169.72;333900;28;18378;-83
2024/01/17 00:50:42;;;;;;;10.98;5.22;;;;;;;-4.78;83.52;98175.66;336546;28;4549;-83
2024/01/17 00:50:54;;;;;;;13.32;5.20;;;;;;;-4.74;83.52;98177.38;333015;28;18513;-83
2024/01/17 00:51:06;;;;;;;12.68;4.75;;;;;;;-4.72;83.81;98178.22;335762;28;4743;-83
2024/01/17 00:51:25;;;;;;;11.60;4.65;;;;;;;-4.65;83.96;98172.31;328279;28;4632;-82
2024/01/17 00:51:37;;;;;;;10.50;4.40;;;;;;;-4.67;83.74;98179.06;333111;28;17903;-83
2024/01/17 00:51:49;;;;;;;10.82;4.70;;;;;;;-4.79;83.67;98173.94;333536;28;16562;-83
2024/01/17 00:52:01;;;;;;;12.77;4.88;;;;;;;-4.74;83.91;98178.22;337173;28;4543;-83
2024/01/17 00:52:13;;;;;;;14.10;5.10;;;;;;;-4.77;83.56;98173.13;336043;28;5438;-83
2024/01/17 00:52:25;;;;;;;11.27;4.75;;;;;;;-4.72;83.78;98176.53;333619;28;18884;-82
2024/01/17 00:52:37;;;;;;;11.43;5.10;;;;;;;-4.74;84.05;98167.22;331332;28;5329;-83
2024/01/17 00:52:49;;;;;;;11.43;4.60;;;;;;;-4.64;83.60;98174.03;333954;28;18181;-83
2024/01/17 00:53:01;;;;;;;11.05;4.80;;;;;;;-4.61;83.84;98174.03;336303;28;4662;-82
2024/01/17 00:53:13;;;;;;;10.07;4.38;;;;;;;-4.58;83.53;98170.69;334160;28;4549;-83
2024/01/17 00:53:25;;;;;;;8.82;4.50;;;;;;;-4.58;83.52;98176.59;333779;29;4786;-82
2024/01/17 00:53:38;;;;;;;10.25;4.60;;;;;;;-4.60;83.40;98175.75;334086;29;5823;-82
2024/01/17 00:53:51;;;;;;;9.80;4.63;;;;;;;-4.74;83.16;98174.84;331822;29;18998;-82
2024/01/17 00:54:05;;;;;;;9.73;4.90;;;;;;;-4.74;83.38;98177.38;335247;28;5962;-83
2024/01/17 00:54:17;;;;;;;12.25;5.45;;;;;;;-4.72;83.60;98171.47;327869;28;18047;-83
2024/01/17 00:54:29;;;;;;;19.48;5.80;;;;;;;-4.68;83.36;98174.88;336096;28;5321;-83
2024/01/17 00:54:41;;;;;;;18.63;5.38;;;;;;;-4.62;83.76;98177.44;333658;28;18584;-82
2024/01/17 00:54:53;;;;;;;18.15;4.65;;;;;;;-4.61;83.59;98171.50;335628;28;4567;-82
2024/01/17 00:55:06;;;;;;;12.32;4.20;;;;;;;-4.57;83.38;98179.97;332501;28;18107;-83
2024/01/17 00:55:18;;;;;;;11.57;4.28;;;;;;;-4.53;83.19;98176.59;336536;28;4783;-82
2024/01/17 00:55:30;;;;;;;10.88;4.55;;;;;;;-4.52;83.44;98173.25;335396;29;14831;-83
2024/01/17 00:55:42;;;;;;;8.32;4.70;;;;;;;-4.51;83.21;98180.00;334761;28;15017;-82
2024/01/17 00:55:55;;;;;;;8.68;4.80;;;;;;;-4.49;83.04;98179.16;333161;28;4549;-82
2024/01/17 00:56:07;;;;;;;9.00;5.15;;;;;;;-4.46;83.36;98173.25;334765;28;18184;-82
2024/01/17 00:56:19;;;;;;;10.65;5.40;;;;;;;-4.43;83.26;98175.78;337446;28;4683;-82
2024/01/17 00:56:35;;;;;;;11.27;5.20;;;;;;;-4.43;83.21;98174.13;335080;28;16768;-83
2024/01/17 00:56:47;;;;;;;10.13;4.72;;;;;;;-4.43;82.91;98174.13;334818;28;17595;-83
2024/01/17 00:57:00;;;;;;;10.07;4.75;;;;;;;-4.47;83.02;98172.41;335836;28;4535;-82
2024/01/17 00:57:12;;;;;;;10.77;4.57;;;;;;;-4.52;82.72;98170.72;328013;28;16210;-83
2024/01/17 00:57:24;;;;;;;9.13;4.15;;;;;;;-4.50;82.69;98172.41;335084;28;5473;-83
2024/01/17 00:57:36;;;;;;;9.93;4.50;;;;;;;-4.46;82.73;98163.13;332723;28;10980;-83
2024/01/17 00:57:48;;;;;;;9.63;4.88;;;;;;;-4.54;82.67;98173.22;336414;28;4485;-82
2024/01/17 00:58:00;;;;;;;9.20;4.95;;;;;;;-4.59;82.67;98171.50;334619;28;4652;-83
2024/01/17 00:58:12;;;;;;;9.82;4.95;;;;;;;-4.62;83.04;98172.34;336126;28;4685;-83
2024/01/17 00:58:24;;;;;;;9.68;4.75;;;;;;;-4.68;82.61;98165.56;336269;28;4549;-83
2024/01/17 00:58:36;;;;;;;9.88;4.68;;;;;;;-4.60;82.94;98165.59;333188;28;11451;-83
2024/01/17 00:58:48;;;;;;;10.90;5.05;;;;;;;-4.58;82.94;98163.91;336283;28;5290;-83
2024/01/17 00:59:00;;;;;;;12.38;5.32;;;;;;;-4.62;83.05;98169.81;336325;28;4636;-83